Weather at Teed's Airport

Public forecast

Using degrees Fahrenheit for public forecast. Weather courtesy of forecast.io.

Closest aviation weather report (METAR) to Teed's Airport

Closest report is Lake County Airport, 3.3 nm (6.1 km) ESE. Retrieved 2021/06/21 09:53 UTC (13 minutes ago):

KLKV 210953Z AUTO 00000KT 10SM CLR 15/05 A3007 RMK AO2 SLP130 T01500050

Closest aviation forecast (TAF) to Teed's Airport

Closest forecast is Crater Lake-Klamath Regional Airport, 56.4 nm (104.5 km) W. Retrieved 2021/06/21 06:45 UTC (3 hours ago):

TAF KLMT 210542Z 2106/2206 VRB03KT P6SM SKC FM212100 24008G15KT P6SM SCT090 BKN150 FM220200 32015G25KT P6SM VCTS BKN090CB BKN150